Terminal Aerodrome Forecast
Issued by NWS Sioux Falls, SD

Home | Current Version | Previous Version | Text Only | Print | Product List | Glossary On
Versions: 1 2 3 4 5 6 7 8 9 10 11 12 13 14 15 16 17 18
837
FTUS43 KFSD 191120
TAFFSD
TAF
KFSD 191120Z 1912/2012 17009KT P6SM SKC
     FM191400 17008KT 4SM BR SKC
     FM191600 17009KT 4SM BR OVC008
     FM192000 16009KT P6SM OVC008
     FM200000 15008KT 3SM -DZ BR OVC008
     FM200200 15008KT 1 1/2SM -DZ BR OVC003=

USA.gov is the U.S. government's official web portal to all federal, state and local government web resources and services.